Time;durP1;ratioP1;P1;durP2;ratioP2;P2;SDS_P1;SDS_P2;PMS_P1;PMS_P2;Temp;Humidity;BMP_temperature;BMP_pressure;BME280_temperature;BME280_humidity;BME280_pressure;Samples;Min_cycle;Max_cycle;Signal;HPM_P1;HPM_P2
2021/03/15 03:47:38;;;;;;;3.10;2.90;;;4.60;99.90;;;;;;5008713;22;20055;-89
2021/03/15 03:50:06;;;;;;;3.25;2.90;;;4.60;99.90;;;;;;4986384;28;20042;-90
2021/03/15 03:52:34;;;;;;;3.10;2.90;;;4.50;99.90;;;;;;5036434;28;20832;-89
2021/03/15 03:55:06;;;;;;;3.30;3.10;;;4.40;99.90;;;;;;5004668;28;20371;-89
2021/03/15 03:57:35;;;;;;;2.90;2.70;;;4.40;99.90;;;;;;4986522;28;20046;-89
2021/03/15 04:00:13;;;;;;;2.85;2.65;;;4.50;99.90;;;;;;5003705;28;20506;-90
2021/03/15 04:02:48;;;;;;;3.20;3.00;;;4.40;99.90;;;;;;5022638;28;20041;-90
2021/03/15 04:05:26;;;;;;;2.53;2.33;;;4.50;99.90;;;;;;5026858;28;20762;-89
2021/03/15 04:08:05;;;;;;;4.13;2.72;;;4.50;99.90;;;;;;5007332;28;20096;-89
2021/03/15 04:10:33;;;;;;;3.38;2.63;;;4.60;99.90;;;;;;5016360;28;20038;-90
2021/03/15 04:13:05;;;;;;;2.50;2.30;;;4.50;99.90;;;;;;5008352;28;20050;-90
2021/03/15 04:15:31;;;;;;;2.55;2.40;;;;;;;;;;5009623;28;20502;-90
2021/03/15 04:18:01;;;;;;;4.20;2.30;;;4.40;99.90;;;;;;5030514;28;20125;-92
2021/03/15 04:20:51;;;;;;;2.85;2.65;;;4.40;99.90;;;;;;5002018;28;20070;-91
2021/03/15 04:23:43;;;;;;;3.33;2.28;;;4.50;99.90;;;;;;5011365;28;20096;-90
2021/03/15 04:26:09;;;;;;;2.63;2.42;;;;;;;;;;5007741;28;20055;-89
2021/03/15 04:28:37;;;;;;;2.58;2.15;;;4.50;99.90;;;;;;5025408;28;20038;-88
2021/03/15 04:31:07;;;;;;;3.10;2.80;;;4.60;99.90;;;;;;5025238;28;20043;-86
2021/03/15 04:33:35;;;;;;;4.85;2.63;;;4.80;99.90;;;;;;5009693;28;20034;-84
2021/03/15 04:36:01;;;;;;;4.90;2.83;;;;;;;;;;5024243;28;20041;-86
2021/03/15 04:38:27;;;;;;;4.90;2.60;;;;;;;;;;5027098;28;20049;-85
2021/03/15 04:40:54;;;;;;;3.75;2.90;;;4.70;99.90;;;;;;5019091;28;20864;-84
2021/03/15 04:43:21;;;;;;;2.90;2.53;;;4.60;99.90;;;;;;5009940;28;20042;-87
2021/03/15 04:45:49;;;;;;;3.40;3.20;;;4.50;99.90;;;;;;5004464;28;20055;-86
2021/03/15 04:48:21;;;;;;;4.07;2.88;;;4.60;99.90;;;;;;4990412;28;20104;-88
2021/03/15 04:50:51;;;;;;;3.50;3.10;;;4.50;99.90;;;;;;5000776;28;20039;-87
2021/03/15 04:53:18;;;;;;;3.55;2.90;;;4.40;99.90;;;;;;4992015;28;20042;-85
2021/03/15 04:55:44;;;;;;;4.60;3.03;;;;;;;;;;5000762;28;20057;-89
2021/03/15 04:58:13;;;;;;;3.85;3.55;;;4.60;99.90;;;;;;4991237;28;20098;-87
2021/03/15 05:00:42;;;;;;;3.50;3.20;;;4.60;99.90;;;;;;5010809;28;20045;-86
2021/03/15 05:03:10;;;;;;;7.35;3.20;;;4.50;99.90;;;;;;4982463;28;20063;-89
2021/03/15 05:05:38;;;;;;;2.95;2.53;;;4.60;99.90;;;;;;5005971;28;20049;-89
2021/03/15 05:08:06;;;;;;;3.20;3.00;;;4.60;99.90;;;;;;5000819;28;20121;-88
2021/03/15 05:10:33;;;;;;;4.55;2.70;;;4.60;99.90;;;;;;4978293;28;20866;-86
2021/03/15 05:13:04;;;;;;;3.60;3.20;;;4.60;99.90;;;;;;4976442;28;20566;-89
2021/03/15 05:15:32;;;;;;;3.00;2.75;;;4.70;99.90;;;;;;5009734;28;20047;-88
2021/03/15 05:17:58;;;;;;;7.30;3.20;;;4.60;99.90;;;;;;4992699;28;20051;-88
2021/03/15 05:20:25;;;;;;;5.05;2.92;;;4.80;99.90;;;;;;5005731;28;20027;-86
2021/03/15 05:22:52;;;;;;;3.50;2.70;;;4.70;99.90;;;;;;5007470;28;20039;-88
2021/03/15 05:25:20;;;;;;;4.55;2.72;;;4.70;99.90;;;;;;4994193;28;20167;-85
2021/03/15 05:27:50;;;;;;;3.47;2.63;;;4.60;99.90;;;;;;4990000;28;20054;-87
2021/03/15 05:30:18;;;;;;;2.72;2.50;;;4.70;99.90;;;;;;4994161;28;20529;-88
2021/03/15 05:32:50;;;;;;;4.60;2.50;;;5.60;99.90;;;;;;5010941;28;20043;-87
2021/03/15 05:35:17;;;;;;;3.20;2.90;;;4.60;99.90;;;;;;4986482;28;20105;-86
2021/03/15 05:37:45;;;;;;;3.13;2.83;;;4.60;99.90;;;;;;4992067;28;20039;-86
2021/03/15 05:40:15;;;;;;;4.05;2.67;;;4.50;99.90;;;;;;5005975;28;20087;-88
2021/03/15 05:43:05;;;;;;;2.95;2.60;;;4.50;99.90;;;;;;4982485;28;20078;-87
2021/03/15 05:46:04;;;;;;;5.75;3.50;;;4.50;99.90;;;;;;4988774;28;20039;-89
2021/03/15 05:48:30;;;;;;;3.83;2.70;;;;;;;;;;4990039;28;20051;-90
2021/03/15 05:51:09;;;;;;;2.38;2.28;;;4.50;99.90;;;;;;4997671;28;20070;-90
2021/03/15 05:54:04;;;;;;;4.07;2.47;;;4.40;99.90;;;;;;5002497;28;20045;-88
2021/03/15 05:56:52;;;;;;;2.67;1.65;;;4.40;99.90;;;;;;4982914;28;20126;-88
2021/03/15 05:59:40;;;;;;;2.55;2.40;;;4.30;99.90;;;;;;5006751;28;20129;-87
2021/03/15 06:02:20;;;;;;;2.63;2.40;;;4.30;99.90;;;;;;4989668;28;20093;-89
2021/03/15 06:05:11;;;;;;;2.60;2.33;;;4.30;99.90;;;;;;4999907;28;20049;-86
2021/03/15 06:07:39;;;;;;;2.88;2.72;;;4.30;99.90;;;;;;5002195;28;20046;-89
2021/03/15 06:10:10;;;;;;;3.33;2.58;;;4.20;99.90;;;;;;4999823;28;20035;-89
2021/03/15 06:13:00;;;;;;;4.50;2.58;;;4.20;99.90;;;;;;4983717;28;20054;-88
2021/03/15 06:15:38;;;;;;;3.73;2.70;;;4.20;99.90;;;;;;4996463;28;20053;-89
2021/03/15 06:18:08;;;;;;;3.33;3.13;;;4.00;99.90;;;;;;5008306;28;20055;-88
2021/03/15 06:20:44;;;;;;;3.42;3.13;;;3.90;99.90;;;;;;5008026;28;20043;-89
2021/03/15 06:23:11;;;;;;;2.97;2.65;;;3.90;99.90;;;;;;4994428;28;20507;-89
2021/03/15 06:25:37;;;;;;;2.97;2.70;;;3.80;99.90;;;;;;4994849;28;20034;-88
2021/03/15 06:28:04;;;;;;;2.83;2.63;;;3.80;99.90;;;;;;4991914;28;20039;-90
2021/03/15 06:30:31;;;;;;;3.35;2.88;;;;;;;;;;4988984;28;20050;-84
2021/03/15 06:33:00;;;;;;;4.72;2.83;;;3.50;99.90;;;;;;4999492;28;20039;-90
2021/03/15 06:35:33;;;;;;;7.25;3.53;;;3.40;99.90;;;;;;4974514;28;20110;-90
2021/03/15 06:38:14;;;;;;;3.45;2.75;;;3.40;99.90;;;;;;4991720;28;20043;-90
2021/03/15 06:40:43;;;;;;;5.85;3.17;;;3.40;99.90;;;;;;4979467;28;20066;-91
2021/03/15 06:43:14;;;;;;;3.58;2.92;;;3.30;99.90;;;;;;4992205;28;20845;-88
2021/03/15 06:45:42;;;;;;;3.67;2.92;;;;;;;;;;4987335;28;20527;-90
2021/03/15 06:48:08;;;;;;;5.40;3.55;;;3.20;99.90;;;;;;5023007;28;20038;-89
2021/03/15 06:50:39;;;;;;;3.25;2.90;;;3.20;99.90;;;;;;5010859;28;20046;-91
2021/03/15 06:53:06;;;;;;;4.57;2.95;;;3.00;99.90;;;;;;5027501;28;20054;-89
2021/03/15 06:55:48;;;;;;;4.80;3.47;;;3.00;99.90;;;;;;5019215;28;20050;-89
2021/03/15 06:58:33;;;;;;;4.43;4.03;;;2.90;99.90;;;;;;5010689;28;20046;-90
2021/03/15 07:01:19;;;;;;;3.13;2.92;;;2.90;99.90;;;;;;5016782;28;20066;-89
2021/03/15 07:04:05;;;;;;;3.00;2.80;;;2.90;99.90;;;;;;5005315;28;20047;-90
2021/03/15 07:06:42;;;;;;;3.05;2.83;;;2.90;99.90;;;;;;5013844;28;20106;-88
2021/03/15 07:09:15;;;;;;;4.18;3.80;;;2.80;99.90;;;;;;5015943;28;20057;-90
2021/03/15 07:11:42;;;;;;;3.45;3.15;;;;;;;;;;5020856;28;20564;-90
2021/03/15 07:14:22;;;;;;;3.90;3.53;;;2.60;99.90;;;;;;5017561;28;20027;-89
2021/03/15 07:16:59;;;;;;;2.45;2.35;;;2.50;99.90;;;;;;5021212;28;20086;-90
2021/03/15 07:19:25;;;;;;;2.88;2.67;;;;;;;;;;5023574;28;20068;-91
2021/03/15 07:21:52;;;;;;;2.50;2.33;;;;;;;;;;5012675;28;20887;-90
2021/03/15 07:24:18;;;;;;;3.05;2.85;;;;;;;;;;5022364;28;20038;-89
2021/03/15 07:26:45;;;;;;;3.20;3.00;;;;;;;;;;5009428;28;20046;-89
2021/03/15 07:29:16;;;;;;;3.70;2.50;;;2.30;99.90;;;;;;5022483;28;20049;-90
2021/03/15 07:31:49;;;;;;;3.25;3.05;;;2.30;99.90;;;;;;5019751;28;20042;-89
2021/03/15 07:34:18;;;;;;;2.78;2.65;;;2.30;99.90;;;;;;5010241;28;20053;-89
2021/03/15 07:36:45;;;;;;;3.83;3.30;;;2.20;99.90;;;;;;5014823;28;20753;-90
2021/03/15 07:39:11;;;;;;;2.90;2.70;;;;;;;;;;5009507;28;20049;-89
2021/03/15 07:41:38;;;;;;;4.40;2.97;;;;;;;;;;5021719;28;20038;-90
2021/03/15 07:44:23;;;;;;;3.58;3.25;;;2.20;99.90;;;;;;5032533;28;20119;-89
2021/03/15 07:46:50;;;;;;;3.00;2.80;;;2.30;99.90;;;;;;5003524;28;20059;-90
2021/03/15 07:49:38;;;;;;;3.35;3.05;;;2.20;99.90;;;;;;5020941;28;20065;-90
2021/03/15 07:52:06;;;;;;;2.88;2.63;;;2.30;99.90;;;;;;5017984;28;20039;-89
2021/03/15 07:54:34;;;;;;;3.45;3.17;;;2.40;99.90;;;;;;5014866;28;20051;-90
2021/03/15 07:57:19;;;;;;;3.05;2.85;;;2.50;99.90;;;;;;5024574;28;20039;-91
2021/03/15 07:59:52;;;;;;;3.28;2.85;;;2.70;99.90;;;;;;5035744;28;20043;-91
2021/03/15 08:02:21;;;;;;;3.40;3.15;;;2.70;99.90;;;;;;5046152;28;20031;-91
2021/03/15 08:04:48;;;;;;;3.30;3.00;;;;;;;;;;5041298;28;20031;-92
2021/03/15 08:07:15;;;;;;;4.75;3.45;;;2.90;99.90;;;;;;5032080;28;20122;-90
2021/03/15 08:09:43;;;;;;;2.55;2.40;;;2.90;99.90;;;;;;5022004;28;20074;-89
2021/03/15 08:12:10;;;;;;;2.83;2.60;;;3.00;99.90;;;;;;5037240;28;20033;-91
2021/03/15 08:14:37;;;;;;;3.38;3.08;;;3.00;99.90;;;;;;5046322;28;20095;-91
2021/03/15 08:17:07;;;;;;;3.80;3.00;;;2.90;99.90;;;;;;5030279;28;20051;-91
2021/03/15 08:19:36;;;;;;;2.55;2.45;;;2.90;99.90;;;;;;5023801;28;20051;-89
2021/03/15 08:22:03;;;;;;;2.88;2.67;;;2.90;99.90;;;;;;5014050;28;20164;-89
2021/03/15 08:24:34;;;;;;;3.67;3.15;;;2.80;99.90;;;;;;5003081;28;20039;-89
2021/03/15 08:27:02;;;;;;;6.50;3.00;;;2.80;99.90;;;;;;5020432;28;20133;-88
2021/03/15 08:29:29;;;;;;;3.40;3.10;;;2.80;99.90;;;;;;5022880;28;20042;-90
2021/03/15 08:31:57;;;;;;;3.38;3.08;;;3.00;99.90;;;;;;5022384;28;20065;-90
2021/03/15 08:34:24;;;;;;;3.97;3.60;;;;;;;;;;5022825;28;20035;-90
2021/03/15 08:36:50;;;;;;;5.95;4.05;;;;;;;;;;5014417;28;20034;-90
2021/03/15 08:39:40;;;;;;;3.75;3.45;;;3.30;99.90;;;;;;5016297;28;20141;-89
2021/03/15 08:42:09;;;;;;;3.70;3.47;;;3.30;99.90;;;;;;5036950;28;20409;-90
2021/03/15 08:44:43;;;;;;;7.30;4.00;;;3.40;99.90;;;;;;5021342;28;20039;-90
2021/03/15 08:47:10;;;;;;;3.65;3.35;;;3.30;99.90;;;;;;5020819;28;20062;-90
2021/03/15 08:49:38;;;;;;;4.75;3.05;;;;;;;;;;5023023;28;20048;-90
2021/03/15 08:52:04;;;;;;;3.45;3.17;;;;;;;;;;5020358;28;20126;-90
2021/03/15 08:54:56;;;;;;;4.57;4.28;;;3.40;99.90;;;;;;5022772;28;20078;-91
2021/03/15 08:57:30;;;;;;;5.90;4.18;;;3.50;99.90;;;;;;5014978;28;20117;-91
2021/03/15 08:59:57;;;;;;;4.63;4.13;;;;;;;;;;5012879;28;20044;-91
2021/03/15 09:02:38;;;;;;;6.47;4.88;;;3.60;99.90;;;;;;5016012;28;20043;-90
2021/03/15 09:05:30;;;;;;;;;;;3.50;99.90;;;;;;5025540;28;20786;-91
2021/03/15 09:07:56;;;;;;;5.20;4.70;;;;;;;;;;5021584;28;20421;-90
2021/03/15 09:10:27;;;;;;;5.72;4.50;;;3.20;99.90;;;;;;5026792;28;20035;-90
2021/03/15 09:13:17;;;;;;;6.50;5.00;;;3.20;99.90;;;;;;5016998;28;20063;-91
2021/03/15 09:15:45;;;;;;;4.80;4.23;;;;;;;;;;5023270;28;20042;-91
2021/03/15 09:18:43;;;;;;;5.95;4.93;;;3.30;99.90;;;;;;5008255;28;20227;-91
2021/03/15 09:21:27;;;;;;;5.75;5.00;;;3.30;99.90;;;;;;5008823;28;20035;-91
2021/03/15 09:24:00;;;;;;;6.18;4.93;;;3.30;99.90;;;;;;5009638;28;20034;-90
2021/03/15 09:26:26;;;;;;;6.78;5.32;;;;;;;;;;5026263;28;20064;-90
2021/03/15 09:28:53;;;;;;;4.85;4.35;;;3.40;99.90;;;;;;5043128;28;20046;-91
2021/03/15 09:31:19;;;;;;;4.55;4.20;;;;;;;;;;5026054;28;20069;-90
2021/03/15 09:33:45;;;;;;;6.47;4.85;;;;;;;;;;5026798;28;20112;-91
2021/03/15 09:36:11;;;;;;;5.43;4.95;;;;;;;;;;5016681;28;20046;-90
2021/03/15 09:38:38;;;;;;;6.13;4.80;;;3.60;99.90;;;;;;5013425;28;20945;-91
2021/03/15 09:41:08;;;;;;;5.07;4.20;;;3.60;99.90;;;;;;5027139;28;20547;-91
2021/03/15 09:43:34;;;;;;;5.22;4.03;;;;;;;;;;5026916;28;20035;-90
2021/03/15 09:46:03;;;;;;;3.92;3.60;;;3.70;99.90;;;;;;5026700;28;20050;-92
2021/03/15 09:48:30;;;;;;;2.85;2.65;;;3.90;99.90;;;;;;5031756;28;20043;-90
2021/03/15 09:51:00;;;;;;;4.25;3.10;;;3.90;99.90;;;;;;5009196;28;20122;-91
2021/03/15 09:53:26;;;;;;;2.75;2.55;;;;;;;;;;5023782;28;20134;-91
2021/03/15 09:56:10;;;;;;;2.65;2.42;;;4.00;99.90;;;;;;5007868;28;20070;-89
2021/03/15 09:58:38;;;;;;;4.55;2.92;;;4.10;99.90;;;;;;5007846;28;20075;-90
2021/03/15 10:01:10;;;;;;;3.10;2.90;;;4.20;99.90;;;;;;5018765;28;20042;-90
2021/03/15 10:03:36;;;;;;;3.25;3.05;;;;;;;;;;5021339;28;20042;-91
2021/03/15 10:06:02;;;;;;;3.45;3.25;;;;;;;;;;5020290;28;20080;-91
2021/03/15 10:08:31;;;;;;;2.80;2.60;;;4.30;99.90;;;;;;5009097;28;20027;-90
2021/03/15 10:10:58;;;;;;;3.50;3.30;;;4.30;99.90;;;;;;5008514;28;20042;-89
2021/03/15 10:13:24;;;;;;;2.97;2.80;;;;;;;;;;5018923;28;20042;-89
2021/03/15 10:15:50;;;;;;;2.45;2.25;;;;;;;;;;5043203;28;20038;-89
2021/03/15 10:18:17;;;;;;;2.85;2.70;;;4.30;99.90;;;;;;5044458;28;20058;-89
2021/03/15 10:20:43;;;;;;;2.58;2.47;;;;;;;;;;5027168;28;20049;-88
2021/03/15 10:23:14;;;;;;;2.38;2.28;;;4.40;99.90;;;;;;5026288;28;20049;-88
2021/03/15 10:25:40;;;;;;;;;;;4.30;99.90;;;;;;5017200;28;20370;-91
2021/03/15 10:28:07;;;;;;;3.17;2.33;;;;;;;;;;5026232;28;19969;-90
2021/03/15 10:30:35;;;;;;;2.05;1.95;;;4.40;99.90;;;;;;5011722;28;20730;-90
2021/03/15 10:33:02;;;;;;;3.17;2.92;;;4.40;99.90;;;;;;5016774;28;20475;-90
2021/03/15 10:35:32;;;;;;;2.60;2.47;;;4.30;99.90;;;;;;5005958;28;20043;-90
2021/03/15 10:38:01;;;;;;;3.10;2.90;;;4.20;99.90;;;;;;5016886;28;20141;-90
2021/03/15 10:40:29;;;;;;;2.50;2.40;;;4.20;99.90;;;;;;5015563;28;20066;-89
2021/03/15 10:42:55;;;;;;;2.40;2.20;;;;;;;;;;5005577;28;20046;-90
2021/03/15 10:45:24;;;;;;;2.20;2.10;;;4.10;99.90;;;;;;5012612;28;20129;-91
2021/03/15 10:47:50;;;;;;;3.20;2.83;;;;;;;;;;4988198;28;20039;-90
2021/03/15 10:50:27;;;;;;;3.05;2.85;;;4.20;99.90;;;;;;5005359;28;20070;-90
2021/03/15 10:52:54;;;;;;;3.03;2.60;;;;;;;;;;5005640;28;20035;-91
2021/03/15 10:55:22;;;;;;;2.65;2.55;;;4.30;99.90;;;;;;4996147;28;20035;-91
2021/03/15 10:58:09;;;;;;;2.10;2.00;;;4.20;99.90;;;;;;4995310;28;20075;-89
2021/03/15 11:00:46;;;;;;;3.63;2.70;;;4.20;99.90;;;;;;4972062;28;20046;-92
2021/03/15 11:03:31;;;;;;;2.47;2.38;;;4.20;99.90;;;;;;4988199;28;20039;-90
2021/03/15 11:06:07;;;;;;;2.05;1.95;;;4.20;99.90;;;;;;4969642;28;20066;-90
2021/03/15 11:08:34;;;;;;;2.33;1.95;;;4.30;99.90;;;;;;4987842;28;20043;-89
2021/03/15 11:11:14;;;;;;;2.70;2.60;;;4.40;99.90;;;;;;4971267;28;20502;-90
2021/03/15 11:13:47;;;;;;;2.95;2.75;;;4.30;99.90;;;;;;4989517;28;20083;-90
2021/03/15 11:16:32;;;;;;;2.53;2.30;;;4.40;99.90;;;;;;4972028;28;20032;-89
2021/03/15 11:19:04;;;;;;;2.90;2.70;;;4.40;99.90;;;;;;4970854;28;20054;-90
2021/03/15 11:21:34;;;;;;;2.65;2.55;;;4.40;99.90;;;;;;4971915;28;20407;-90
2021/03/15 11:24:01;;;;;;;1.63;1.63;;;4.30;99.90;;;;;;4984024;28;20039;-89
2021/03/15 11:26:28;;;;;;;2.30;2.20;;;;;;;;;;4987062;28;20051;-89
2021/03/15 11:28:56;;;;;;;2.22;2.13;;;4.20;99.90;;;;;;4956460;28;20055;-90
2021/03/15 11:31:24;;;;;;;3.03;2.83;;;4.30;99.90;;;;;;4990250;28;20388;-90
2021/03/15 11:37:46;;;;;;;3.70;2.15;;;4.40;99.90;;;;;;4987456;28;20039;-89
2021/03/15 11:40:12;;;;;;;2.80;2.60;;;4.70;99.90;;;;;;4991920;28;20066;-90
2021/03/15 11:42:40;;;;;;;2.60;2.40;;;;;;;;;;4988452;28;20806;-89
2021/03/15 11:45:06;;;;;;;4.50;2.97;;;4.80;99.90;;;;;;4974401;28;20043;-90
2021/03/15 11:51:32;;;;;;;3.28;3.08;;;5.00;99.90;;;;;;5023983;28;20053;-89
2021/03/15 11:54:09;;;;;;;2.60;2.50;;;5.10;99.90;;;;;;5006468;28;20129;-89
2021/03/15 11:57:11;;;;;;;3.80;3.15;;;5.10;99.90;;;;;;5004590;28;20115;-89
2021/03/15 11:59:37;;;;;;;3.15;2.92;;;;;;;;;;5023271;28;20038;-88
2021/03/15 12:02:04;;;;;;;3.53;3.10;;;5.00;99.90;;;;;;5019425;28;20042;-89
2021/03/15 12:04:30;;;;;;;3.90;2.88;;;;;;;;;;5017357;28;20042;-89
2021/03/15 12:06:56;;;;;;;4.03;3.22;;;;;;;;;;5033499;28;20043;-88
2021/03/15 12:09:22;;;;;;;3.50;3.20;;;;;;;;;;5012826;28;20046;-87
2021/03/15 12:11:47;;;;;;;3.67;3.38;;;5.10;99.90;;;;;;5029144;28;20050;-88
2021/03/15 12:14:13;;;;;;;3.40;3.10;;;;;;;;;;5029309;28;20045;-88
2021/03/15 12:16:40;;;;;;;4.93;3.10;;;;;;;;;;5026297;28;20072;-90
2021/03/15 12:19:06;;;;;;;4.35;3.40;;;;;;;;;;5027149;28;20045;-88
2021/03/15 12:21:32;;;;;;;3.90;3.55;;;;;;;;;;5029499;28;20507;-85
2021/03/15 12:23:58;;;;;;;3.45;3.25;;;;;;;;;;5028072;28;20042;-88
2021/03/15 12:26:25;;;;;;;3.97;3.67;;;5.30;99.90;;;;;;5031769;28;20046;-90
2021/03/15 12:28:51;;;;;;;4.30;3.80;;;;;;;;;;5043486;28;20128;-89
2021/03/15 12:31:17;;;;;;;4.00;3.05;;;;;;;;;;5042493;28;20042;-88
2021/03/15 12:37:09;;;;;;;3.33;3.03;;;;;;;;;;5048429;28;20050;-87
2021/03/15 12:42:57;;;;;;;3.60;3.10;;;;;;;;;;5045600;28;20129;-89
2021/03/15 12:48:47;;;;;;;4.63;3.38;;;6.20;99.90;;;;;;5045886;28;20116;-88
2021/03/15 12:51:14;;;;;;;3.38;3.15;;;6.20;99.90;;;;;;5048114;28;20053;-88
2021/03/15 12:53:40;;;;;;;3.30;3.00;;;;;;;;;;5046821;28;20132;-87
2021/03/15 12:56:06;;;;;;;3.30;3.10;;;6.30;99.90;;;;;;5046164;28;20038;-88
2021/03/15 12:58:32;;;;;;;3.33;3.13;;;;;;;;;;5010384;28;20047;-89
2021/03/15 13:00:59;;;;;;;2.90;2.70;;;6.50;99.90;;;;;;5028753;28;20097;-90
2021/03/15 13:03:55;;;;;;;3.50;2.85;;;6.70;99.90;;;;;;5028883;28;20034;-89
2021/03/15 13:09:42;;;;;;;3.72;3.42;;;7.10;99.90;;;;;;5025608;28;20104;-88
2021/03/15 13:15:30;;;;;;;3.20;2.83;;;7.40;99.90;;;;;;5024910;28;20045;-87
2021/03/15 13:21:18;;;;;;;2.97;2.80;;;7.50;99.90;;;;;;5024464;28;20505;-89
2021/03/15 13:27:07;;;;;;;2.65;2.55;;;7.70;99.90;;;;;;5026575;28;20122;-89
2021/03/15 13:29:33;;;;;;;2.80;2.35;;;7.50;99.90;;;;;;5028662;28;20049;-87
2021/03/15 13:31:58;;;;;;;2.92;2.72;;;7.30;99.90;;;;;;5010852;28;20039;-88
2021/03/15 13:37:46;;;;;;;3.20;3.00;;;7.40;99.90;;;;;;5025380;28;20041;-89
2021/03/15 13:53:03;;;;;;;0.90;0.90;;;9.50;99.90;;;;;;3169904;22;20300;-88
2021/03/15 13:55:29;;;;;;;2.38;2.28;;;9.80;99.30;;;;;;4965620;28;20056;-89
2021/03/15 13:57:55;;;;;;;2.38;2.28;;;9.90;96.30;;;;;;4969634;28;20047;-89
2021/03/15 14:00:21;;;;;;;2.58;2.38;;;9.70;95.60;;;;;;4970246;28;20054;-88
2021/03/15 14:02:47;;;;;;;2.00;1.90;;;9.40;95.90;;;;;;4969817;28;20044;-89
2021/03/15 14:05:13;;;;;;;2.63;2.53;;;;;;;;;;4988254;28;20050;-89
2021/03/15 14:14:27;;;;;;;1.25;1.13;;;9.00;98.20;;;;;;4988005;28;20055;-90
2021/03/15 14:16:53;;;;;;;3.80;2.40;;;;;;;;;;4987010;28;20574;-89
2021/03/15 14:19:19;;;;;;;2.50;2.40;;;8.90;98.90;;;;;;4970548;28;20046;-89
2021/03/15 14:21:45;;;;;;;4.07;3.78;;;;;;;;;;4970218;28;20044;-89
2021/03/15 14:24:11;;;;;;;2.88;2.72;;;;;;;;;;4969748;28;20086;-89
2021/03/15 14:26:37;;;;;;;2.67;2.58;;;;;;;;;;4969942;28;20487;-89
2021/03/15 14:29:05;;;;;;;2.22;2.13;;;8.60;97.90;;;;;;4970330;28;20147;-89
2021/03/15 14:31:35;;;;;;;2.25;2.15;;;8.50;98.70;;;;;;4987575;28;20031;-89
2021/03/15 14:34:01;;;;;;;2.78;2.67;;;8.30;99.10;;;;;;4985839;28;20039;-89
2021/03/15 14:36:27;;;;;;;2.08;1.98;;;8.30;99.40;;;;;;4987173;28;20046;-88
2021/03/15 14:38:52;;;;;;;2.47;2.38;;;8.20;99.80;;;;;;4987271;28;20047;-89
2021/03/15 14:41:18;;;;;;;2.58;2.47;;;;;;;;;;4987019;28;20568;-89
2021/03/15 14:43:54;;;;;;;1.73;1.73;;;8.10;99.10;;;;;;4969458;28;20043;-88
2021/03/15 14:46:20;;;;;;;2.65;2.45;;;8.20;99.90;;;;;;5003237;28;20090;-89
2021/03/15 14:48:46;;;;;;;2.17;2.08;;;;;;;;;;5000273;28;20043;-90
2021/03/15 14:51:15;;;;;;;3.53;3.20;;;8.00;99.40;;;;;;5007782;28;20039;-90
2021/03/15 14:57:10;;;;;;;3.65;3.20;;;7.90;99.60;;;;;;5012956;28;20565;-87
2021/03/15 15:02:57;;;;;;;2.83;2.63;;;8.10;99.90;;;;;;5020093;28;20042;-87
2021/03/15 15:05:23;;;;;;;2.50;2.30;;;8.10;99.60;;;;;;5022265;28;20035;-88
2021/03/15 15:08:08;;;;;;;2.80;2.60;;;8.00;99.60;;;;;;5014680;28;20538;-89
2021/03/15 15:10:34;;;;;;;2.63;2.53;;;8.00;99.40;;;;;;5006300;28;20047;-88
2021/03/15 15:12:59;;;;;;;2.55;2.45;;;8.10;98.80;;;;;;5005272;28;20058;-88
2021/03/15 15:15:25;;;;;;;2.28;2.17;;;8.00;98.90;;;;;;5005881;28;20500;-87
2021/03/15 15:17:51;;;;;;;2.47;2.38;;;8.00;98.50;;;;;;5005496;28;20042;-87
2021/03/15 15:20:17;;;;;;;2.75;2.55;;;7.90;98.70;;;;;;4987424;28;20814;-88
2021/03/15 15:22:43;;;;;;;2.70;2.60;;;7.80;99.90;;;;;;4987295;28;20056;-89
2021/03/15 15:25:10;;;;;;;2.97;2.78;;;7.60;99.90;;;;;;5005884;28;20042;-88
2021/03/15 15:27:37;;;;;;;2.42;2.33;;;7.30;99.90;;;;;;4988007;28;20125;-89
2021/03/15 15:30:06;;;;;;;3.00;2.80;;;6.70;99.90;;;;;;5005179;28;20045;-88
2021/03/15 15:32:33;;;;;;;2.80;2.60;;;6.70;99.90;;;;;;5005095;28;20082;-88
2021/03/15 15:34:58;;;;;;;2.72;2.53;;;6.60;99.90;;;;;;4987407;28;20493;-88
2021/03/15 15:37:24;;;;;;;2.60;2.50;;;;;;;;;;5006054;28;20045;-88
2021/03/15 15:39:50;;;;;;;3.30;3.00;;;6.50;99.90;;;;;;5004754;28;20047;-88
2021/03/15 15:42:16;;;;;;;2.42;2.30;;;6.50;99.90;;;;;;5005649;28;20384;-88
2021/03/15 15:44:42;;;;;;;2.83;2.58;;;;;;;;;;5004498;28;20478;-88
2021/03/15 15:47:07;;;;;;;2.78;2.65;;;6.50;99.90;;;;;;4986232;28;20081;-88
2021/03/15 15:49:33;;;;;;;2.88;2.67;;;;;;;;;;4991924;28;20055;-89
2021/03/15 15:51:59;;;;;;;2.40;2.30;;;6.60;99.90;;;;;;4998890;28;20782;-88
2021/03/15 15:54:25;;;;;;;3.28;3.08;;;6.60;99.90;;;;;;5000261;28;20061;-91
2021/03/15 15:56:51;;;;;;;2.88;2.67;;;;;;;;;;4995601;28;20054;-89
2021/03/15 15:59:27;;;;;;;2.80;2.60;;;6.80;99.90;;;;;;5008023;28;20086;-89
2021/03/15 16:01:53;;;;;;;2.70;2.50;;;;;;;;;;5004227;28;20043;-88
2021/03/15 16:04:18;;;;;;;3.17;2.97;;;6.70;99.90;;;;;;5000313;28;20503;-89
2021/03/15 16:06:44;;;;;;;2.78;2.67;;;6.70;99.90;;;;;;5008040;28;20145;-89
2021/03/15 16:09:10;;;;;;;3.05;2.85;;;;;;;;;;5008122;28;20047;-89
2021/03/15 16:11:36;;;;;;;3.15;2.85;;;;;;;;;;4990815;28;20201;-89
2021/03/15 16:14:20;;;;;;;2.30;2.20;;;6.80;99.90;;;;;;4990763;28;20042;-89
2021/03/15 16:16:46;;;;;;;2.67;2.50;;;;;;;;;;4991071;28;20061;-90
2021/03/15 16:19:13;;;;;;;2.92;2.72;;;;;;;;;;5008046;28;20046;-89
2021/03/15 16:21:39;;;;;;;2.70;2.60;;;;;;;;;;5008385;28;20046;-89
2021/03/15 16:27:17;;;;;;;2.88;2.67;;;;;;;;;;5004871;28;20097;-89
2021/03/15 16:29:45;;;;;;;2.65;2.42;;;6.80;99.90;;;;;;4990398;28;20077;-89
2021/03/15 16:32:11;;;;;;;3.10;2.90;;;6.80;99.90;;;;;;4989018;28;20950;-89
2021/03/15 16:34:37;;;;;;;3.38;2.65;;;;;;;;;;5010379;28;20426;-88
2021/03/15 16:37:04;;;;;;;2.38;2.28;;;6.80;99.90;;;;;;5007740;28;20101;-88
2021/03/15 16:39:29;;;;;;;2.30;2.20;;;6.70;99.90;;;;;;5001282;28;20520;-89
2021/03/15 16:41:59;;;;;;;2.50;2.40;;;6.70;99.90;;;;;;4990016;28;20050;-89
2021/03/15 16:44:24;;;;;;;2.67;2.50;;;6.70;99.90;;;;;;5001605;28;20769;-87
2021/03/15 16:46:51;;;;;;;2.58;2.47;;;;;;;;;;4995345;28;20043;-87
2021/03/15 16:49:18;;;;;;;3.65;3.35;;;6.80;99.90;;;;;;5008046;28;20097;-89
2021/03/15 16:51:44;;;;;;;2.90;2.60;;;;;;;;;;5007049;28;20057;-88
2021/03/15 16:54:09;;;;;;;2.83;2.63;;;6.80;99.90;;;;;;5007421;28;20085;-89
2021/03/15 16:56:35;;;;;;;3.35;3.15;;;6.80;99.90;;;;;;5006386;28;20047;-88
2021/03/15 16:59:03;;;;;;;2.78;2.58;;;6.80;99.90;;;;;;4990689;28;20049;-86
2021/03/15 17:01:28;;;;;;;2.92;2.78;;;6.70;99.90;;;;;;5008941;28;20410;-86
2021/03/15 17:03:55;;;;;;;3.33;3.13;;;6.70;99.90;;;;;;4989231;28;20043;-89
2021/03/15 17:06:21;;;;;;;3.03;2.83;;;6.70;99.90;;;;;;5002310;28;20035;-88
2021/03/15 17:08:47;;;;;;;2.80;2.70;;;6.60;99.90;;;;;;4999747;28;20031;-89
2021/03/15 17:11:13;;;;;;;2.90;2.75;;;;;;;;;;5004531;28;20043;-89
2021/03/15 17:13:39;;;;;;;10.30;6.32;;;6.60;99.90;;;;;;4997188;28;20039;-87
2021/03/15 17:16:05;;;;;;;6.15;4.22;;;6.60;99.90;;;;;;5018078;28;20483;-86
2021/03/15 17:18:33;;;;;;;6.97;4.65;;;6.60;99.90;;;;;;5013834;28;20851;-87
2021/03/15 17:20:59;;;;;;;16.52;8.88;;;6.60;99.90;;;;;;5010480;28;20069;-87
2021/03/15 17:23:26;;;;;;;10.70;6.75;;;6.60;99.90;;;;;;5013048;28;20042;-87
2021/03/15 17:25:58;;;;;;;2.83;2.63;;;6.60;99.90;;;;;;5004652;28;20039;-89
2021/03/15 17:28:24;;;;;;;2.88;2.67;;;;;;;;;;4994449;28;20031;-87
2021/03/15 17:30:51;;;;;;;2.50;2.40;;;6.50;99.90;;;;;;4995937;28;20513;-89
2021/03/15 17:33:17;;;;;;;2.72;2.58;;;6.50;99.90;;;;;;4996835;28;20043;-89
2021/03/15 17:35:43;;;;;;;3.13;2.92;;;6.50;99.90;;;;;;4994587;28;20039;-88
2021/03/15 17:38:09;;;;;;;2.58;2.47;;;6.50;99.90;;;;;;4982837;28;20045;-90
2021/03/15 17:40:36;;;;;;;3.15;2.83;;;4.70;99.90;;;;;;5014033;28;20071;-88
2021/03/15 17:43:02;;;;;;;2.95;2.75;;;6.30;99.90;;;;;;4997037;28;20043;-88
2021/03/15 17:45:29;;;;;;;4.72;3.03;;;;;;;;;;5016851;23;20106;-88
2021/03/15 17:47:55;;;;;;;3.47;2.47;;;;;;;;;;5010684;28;20081;-89
2021/03/15 17:50:24;;;;;;;3.63;3.20;;;6.40;99.90;;;;;;5020823;28;20094;-89
2021/03/15 17:52:51;;;;;;;2.97;2.78;;;6.30;99.90;;;;;;5010120;28;20221;-88
2021/03/15 17:55:17;;;;;;;3.53;3.22;;;6.40;99.90;;;;;;5022073;28;20051;-89
2021/03/15 17:57:44;;;;;;;3.75;3.45;;;;;;;;;;5010186;28;20038;-88
2021/03/15 18:00:12;;;;;;;5.20;4.68;;;6.50;99.90;;;;;;5027882;28;20052;-88
2021/03/15 18:02:38;;;;;;;3.50;3.30;;;;;;;;;;5029668;28;20035;-88
2021/03/15 18:05:05;;;;;;;3.83;3.53;;;6.20;99.90;;;;;;4998882;28;20039;-87
2021/03/15 18:07:30;;;;;;;3.70;3.40;;;6.20;99.90;;;;;;5018617;28;20038;-88
2021/03/15 18:09:57;;;;;;;3.33;3.05;;;;;;;;;;5013782;28;20047;-88
2021/03/15 18:12:23;;;;;;;3.97;3.58;;;;;;;;;;5034357;28;20089;-88
2021/03/15 18:14:49;;;;;;;4.93;3.38;;;;;;;;;;5022904;28;20035;-86
2021/03/15 18:17:21;;;;;;;4.15;3.75;;;6.00;99.90;;;;;;5022534;28;20049;-88
2021/03/15 18:19:48;;;;;;;4.85;4.45;;;6.10;99.90;;;;;;5017004;28;20043;-86
2021/03/15 18:22:14;;;;;;;4.63;4.18;;;;;;;;;;5037967;28;20160;-89
2021/03/15 18:24:40;;;;;;;4.03;3.63;;;;;;;;;;5032966;28;20824;-88
2021/03/15 18:27:07;;;;;;;4.18;3.80;;;;;;;;;;5009090;28;20035;-87